Time;durP1;ratioP1;P1;durP2;ratioP2;P2;SDS_P1;SDS_P2;PMS_P1;PMS_P2;Temp;Humidity;BMP_temperature;BMP_pressure;BME280_temperature;BME280_humidity;BME280_pressure;Samples;Min_cycle;Max_cycle;Signal;HPM_P1;HPM_P2
2022/11/21 05:02:08;;;;;;;1999.90;999.90;;;;;;;;;;5373853;22;20269;-74
2022/11/21 05:04:53;;;;;;;1999.90;999.90;;;;;;;;;;5006298;28;20207;-74
2022/11/21 05:07:38;;;;;;;1999.90;999.90;;;;;;;;;;5006761;28;20222;-75
2022/11/21 05:10:23;;;;;;;1999.90;999.90;;;;;;;;;;5013164;28;20211;-73
2022/11/21 05:16:13;;;;;;;1999.90;999.90;;;;;;;;;;5014890;28;20269;-74
2022/11/21 05:18:59;;;;;;;1999.90;999.90;;;;;;;;;;5016732;28;20711;-75
2022/11/21 05:21:44;;;;;;;1999.90;999.90;;;;;;;;;;5004828;28;20234;-75
2022/11/21 05:24:29;;;;;;;1999.90;999.90;;;;;;;;;;5005871;28;20298;-73
2022/11/21 05:27:14;;;;;;;1999.90;999.90;;;;;;;;;;5000567;28;20717;-73
2022/11/21 05:29:59;;;;;;;1999.90;999.90;;;;;;;;;;5009019;28;20346;-74
2022/11/21 05:32:44;;;;;;;1999.90;999.90;;;;;;;;;;4996719;28;20230;-74
2022/11/21 05:35:30;;;;;;;1999.90;999.90;;;;;;;;;;5007253;28;20222;-74
2022/11/21 05:38:15;;;;;;;1999.90;999.90;;;;;;;;;;4992476;28;20207;-73
2022/11/21 05:41:00;;;;;;;1999.90;999.90;;;;;;;;;;5011880;28;20250;-74
2022/11/21 05:43:46;;;;;;;1999.90;999.90;;;;;;;;;;5004659;28;20225;-74
2022/11/21 05:46:31;;;;;;;1999.90;999.90;;;;;;;;;;5003432;28;20211;-73
2022/11/21 05:49:16;;;;;;;1999.90;999.90;;;;;;;;;;5010722;28;20312;-74
2022/11/21 05:52:02;;;;;;;1999.90;999.90;;;;;;;;;;5005271;28;20219;-72
2022/11/21 05:54:47;;;;;;;1999.90;999.90;;;;;;;;;;5012887;28;20700;-73
2022/11/21 05:57:32;;;;;;;1999.90;999.90;;;;;;;;;;5000261;28;20210;-74
2022/11/21 06:00:17;;;;;;;1999.90;999.90;;;;;;;;;;4997477;28;20286;-74
2022/11/21 06:06:06;;;;;;;1999.90;999.90;;;;;;;;;;4999817;28;20728;-73
2022/11/21 06:08:52;;;;;;;1999.90;999.90;;;;;;;;;;5006703;28;20289;-73
2022/11/21 06:11:37;;;;;;;1999.90;999.90;;;;;;;;;;5010765;28;20250;-75
2022/11/21 06:14:22;;;;;;;1999.90;999.90;;;;;;;;;;5003821;28;20215;-72
2022/11/21 06:17:07;;;;;;;1999.90;999.90;;;;;;;;;;4998923;28;20318;-74
2022/11/21 06:19:52;;;;;;;1999.90;999.90;;;;;;;;;;4995955;28;20207;-75
2022/11/21 06:22:37;;;;;;;1999.90;999.90;;;;;;;;;;5011599;28;20361;-73
2022/11/21 06:25:23;;;;;;;1999.90;999.90;;;;;;;;;;5012769;28;20214;-75
2022/11/21 06:28:08;;;;;;;1999.90;999.90;;;;;;;;;;5013090;28;20277;-77
2022/11/21 06:30:53;;;;;;;1999.90;999.90;;;;;;;;;;5011035;28;20408;-74
2022/11/21 06:33:39;;;;;;;1999.90;999.90;;;;;;;;;;5012842;28;20615;-76
2022/11/21 06:36:24;;;;;;;1999.90;999.90;;;;;;;;;;5013349;28;20206;-75
2022/11/21 06:39:09;;;;;;;1999.90;999.90;;;;;;;;;;5011617;28;20210;-74
2022/11/21 06:41:55;;;;;;;1999.90;999.90;;;;;;;;;;5012575;28;20254;-73
2022/11/21 06:44:40;;;;;;;1999.90;999.90;;;;;;;;;;5012309;28;20750;-74
2022/11/21 06:47:24;;;;;;;1999.90;999.90;;;;;;;;;;5006293;28;20218;-72
2022/11/21 06:50:10;;;;;;;1999.90;999.90;;;;;;;;;;5014908;28;20206;-74
2022/11/21 06:52:56;;;;;;;1999.90;999.90;;;;;;;;;;5024342;28;20209;-73
2022/11/21 06:55:42;;;;;;;1999.90;999.90;;;;;;;;;;5019577;28;20232;-74
2022/11/21 06:58:28;;;;;;;1999.90;999.90;;;;;;;;;;5002930;28;20246;-74
2022/11/21 07:01:13;;;;;;;1999.90;999.90;;;;;;;;;;5003865;28;20340;-72
2022/11/21 07:03:58;;;;;;;1999.90;999.90;;;;;;;;;;5005436;28;20227;-72
2022/11/21 07:06:43;;;;;;;1999.90;999.90;;;;;;;;;;5009134;28;20206;-74
2022/11/21 07:09:28;;;;;;;1999.90;999.90;;;;;;;;;;4994189;28;20214;-75
2022/11/21 07:15:17;;;;;;;1999.90;999.90;;;;;;;;;;5012092;28;20265;-73
2022/11/21 07:18:02;;;;;;;1999.90;999.90;;;;;;;;;;5014693;28;20230;-74
2022/11/21 07:20:46;;;;;;;1999.90;999.90;;;;;;;;;;5019346;28;20753;-74
2022/11/21 07:23:32;;;;;;;1999.90;999.90;;;;;;;;;;5002379;28;20211;-74
2022/11/21 07:26:17;;;;;;;1999.90;999.90;;;;;;;;;;5006567;28;20262;-74
2022/11/21 07:29:01;;;;;;;1999.90;999.90;;;;;;;;;;4996308;28;20202;-74
2022/11/21 07:31:48;;;;;;;1999.90;999.90;;;;;;;;;;5015727;28;20447;-74
2022/11/21 07:34:32;;;;;;;1999.90;999.90;;;;;;;;;;5005385;28;20206;-72
2022/11/21 07:37:17;;;;;;;1999.90;999.90;;;;;;;;;;5018659;28;20717;-73
2022/11/21 07:40:02;;;;;;;1999.90;999.90;;;;;;;;;;5003111;28;20296;-73
2022/11/21 07:42:47;;;;;;;1999.90;999.90;;;;;;;;;;5013489;28;20349;-74
2022/11/21 07:45:32;;;;;;;1999.90;999.90;;;;;;;;;;5012009;28;20587;-75
2022/11/21 07:48:18;;;;;;;1999.90;999.90;;;;;;;;;;5002125;28;20270;-74
2022/11/21 07:51:03;;;;;;;1999.90;999.90;;;;;;;;;;5013203;28;20452;-74
2022/11/21 07:53:48;;;;;;;1999.90;999.90;;;;;;;;;;5000693;28;20225;-76
2022/11/21 07:56:33;;;;;;;1999.90;999.90;;;;;;;;;;5019000;28;20218;-74
2022/11/21 07:59:18;;;;;;;1999.90;999.90;;;;;;;;;;4997874;28;20286;-73
2022/11/21 08:02:03;;;;;;;1999.90;999.90;;;;;;;;;;5005474;28;20251;-74
2022/11/21 08:04:50;;;;;;;1999.90;999.90;;;;;;;;;;5007185;28;20771;-72
2022/11/21 08:07:35;;;;;;;1999.90;999.90;;;;;;;;;;5000897;28;20343;-75
2022/11/21 08:10:20;;;;;;;1999.90;999.90;;;;;;;;;;4996324;28;20203;-70
2022/11/21 08:13:06;;;;;;;1999.90;999.90;;;;;;;;;;4992775;28;20203;-70
2022/11/21 08:15:50;;;;;;;1999.90;999.90;;;;;;;;;;4992606;28;20778;-71
2022/11/21 08:18:35;;;;;;;1999.90;999.90;;;;;;;;;;4992641;28;20215;-69
2022/11/21 08:21:22;;;;;;;1999.90;999.90;;;;;;;;;;4992640;28;20715;-70
2022/11/21 08:24:12;;;;;;;1999.90;999.90;;;;;;;;;;5011152;28;20218;-68
2022/11/21 08:26:58;;;;;;;1999.90;999.90;;;;;;;;;;5010853;28;20222;-69
2022/11/21 08:29:43;;;;;;;1999.90;999.90;;;;;;;;;;4995710;28;20577;-72
2022/11/21 08:32:29;;;;;;;1999.90;999.90;;;;;;;;;;4991776;28;20307;-71
2022/11/21 08:35:14;;;;;;;1999.90;999.90;;;;;;;;;;4992690;28;20290;-71
2022/11/21 08:38:01;;;;;;;1999.90;999.90;;;;;;;;;;4992267;28;20219;-73
2022/11/21 08:40:46;;;;;;;1999.90;999.90;;;;;;;;;;4992367;28;20246;-72
2022/11/21 08:43:31;;;;;;;1999.90;999.90;;;;;;;;;;5009070;28;20736;-70
2022/11/21 08:46:17;;;;;;;1999.90;999.90;;;;;;;;;;5010404;28;20792;-71
2022/11/21 08:49:02;;;;;;;1999.90;999.90;;;;;;;;;;5009595;28;20763;-72
2022/11/21 08:51:48;;;;;;;1999.90;999.90;;;;;;;;;;4995750;28;20227;-70
2022/11/21 08:54:34;;;;;;;1999.90;999.90;;;;;;;;;;4992684;28;20555;-72
2022/11/21 08:57:19;;;;;;;1999.90;999.90;;;;;;;;;;4992282;28;20258;-74
2022/11/21 09:00:05;;;;;;;1999.90;999.90;;;;;;;;;;5010899;28;20214;-73
2022/11/21 09:02:50;;;;;;;1999.90;999.90;;;;;;;;;;5012020;28;20246;-74
2022/11/21 09:05:35;;;;;;;1999.90;999.90;;;;;;;;;;5011712;28;20301;-70
2022/11/21 09:08:20;;;;;;;1999.90;999.90;;;;;;;;;;5012114;28;20207;-73
2022/11/21 09:11:07;;;;;;;1999.90;999.90;;;;;;;;;;5009276;28;20235;-70
2022/11/21 09:19:54;;;;;;;1999.90;999.90;;;;;;;;;;4992307;28;20231;-72
2022/11/21 09:22:39;;;;;;;1999.90;999.90;;;;;;;;;;4991434;28;20234;-74
2022/11/21 09:25:24;;;;;;;1999.90;999.90;;;;;;;;;;4999610;28;20703;-72
2022/11/21 09:28:10;;;;;;;1999.90;999.90;;;;;;;;;;5003526;28;20206;-72
2022/11/21 09:30:56;;;;;;;1999.90;999.90;;;;;;;;;;5006811;28;20341;-73
2022/11/21 09:33:40;;;;;;;1999.90;999.90;;;;;;;;;;5013038;28;20293;-73
2022/11/21 09:36:26;;;;;;;1999.90;999.90;;;;;;;;;;5000202;28;20199;-72
2022/11/21 09:39:10;;;;;;;1999.90;999.90;;;;;;;;;;5010493;28;20212;-73
2022/11/21 09:42:01;;;;;;;1999.90;999.90;;;;;;;;;;5003083;28;20231;-73
2022/11/21 09:44:57;;;;;;;1999.90;999.90;;;;;;;;;;4995517;28;20319;-73
2022/11/21 09:47:43;;;;;;;1999.90;999.90;;;;;;;;;;5010869;28;20210;-74
2022/11/21 09:50:31;;;;;;;1999.90;999.90;;;;;;;;;;5008571;28;20202;-74
2022/11/21 09:53:17;;;;;;;1999.90;999.90;;;;;;;;;;5006096;28;20266;-72
2022/11/21 09:56:04;;;;;;;1999.90;999.90;;;;;;;;;;5010280;28;20621;-72
2022/11/21 09:58:55;;;;;;;1999.90;999.90;;;;;;;;;;5020128;28;20808;-73
2022/11/21 10:01:42;;;;;;;1999.90;999.90;;;;;;;;;;5004113;28;20856;-73
2022/11/21 10:04:27;;;;;;;1999.90;999.90;;;;;;;;;;5015522;28;20306;-73
2022/11/21 10:07:15;;;;;;;1999.90;999.90;;;;;;;;;;5006095;28;20290;-72
2022/11/21 10:10:10;;;;;;;1999.90;999.90;;;;;;;;;;5015188;28;20211;-72
2022/11/21 10:13:04;;;;;;;1999.90;999.90;;;;;;;;;;5014067;28;20772;-72
2022/11/21 10:15:56;;;;;;;1999.90;999.90;;;;;;;;;;5007227;28;20701;-72
2022/11/21 10:19:05;;;;;;;1999.90;999.90;;;;;;;;;;5004530;28;20206;-71
2022/11/21 10:21:59;;;;;;;1999.90;999.90;;;;;;;;;;5010110;28;20415;-72
2022/11/21 10:24:48;;;;;;;1999.90;999.90;;;;;;;;;;5013549;28;20206;-72
2022/11/21 10:27:36;;;;;;;1999.90;999.90;;;;;;;;;;4994740;28;20761;-73
2022/11/21 10:30:22;;;;;;;1999.90;999.90;;;;;;;;;;5010892;28;20710;-73
2022/11/21 10:33:12;;;;;;;1999.90;999.90;;;;;;;;;;5009660;28;20230;-72
2022/11/21 10:36:00;;;;;;;1999.90;999.90;;;;;;;;;;5005682;28;20705;-73
2022/11/21 10:38:49;;;;;;;1999.90;999.90;;;;;;;;;;5007877;28;20334;-72
2022/11/21 10:41:38;;;;;;;1999.90;999.90;;;;;;;;;;5010439;28;20238;-72
2022/11/21 10:47:31;;;;;;;1999.90;999.90;;;;;;;;;;4998373;28;20208;-73
2022/11/21 10:50:31;;;;;;;1999.90;999.90;;;;;;;;;;4994055;28;20208;-70
2022/11/21 10:56:22;;;;;;;1999.90;999.90;;;;;;;;;;5013907;28;20203;-72
2022/11/21 10:59:12;;;;;;;1999.90;999.90;;;;;;;;;;5015741;28;20566;-72
2022/11/21 11:01:59;;;;;;;1999.90;999.90;;;;;;;;;;5008308;28;20962;-71
2022/11/21 11:04:44;;;;;;;1999.90;999.90;;;;;;;;;;5004945;28;20220;-73
2022/11/21 11:07:29;;;;;;;1999.90;999.90;;;;;;;;;;5002444;28;20204;-72
2022/11/21 11:10:21;;;;;;;1999.90;999.90;;;;;;;;;;5011455;28;20278;-71
2022/11/21 11:16:18;;;;;;;1999.90;999.90;;;;;;;;;;5003577;28;20206;-70
2022/11/21 11:19:07;;;;;;;1999.90;999.90;;;;;;;;;;5010904;28;20336;-72
2022/11/21 11:21:52;;;;;;;1999.90;999.90;;;;;;;;;;5008397;28;20297;-72
2022/11/21 11:24:36;;;;;;;1999.90;999.90;;;;;;;;;;5004533;28;20291;-72
2022/11/21 11:27:28;;;;;;;1999.90;999.90;;;;;;;;;;5015006;28;20220;-71
2022/11/21 11:30:15;;;;;;;1999.90;999.90;;;;;;;;;;5002927;28;20205;-72
2022/11/21 11:33:00;;;;;;;1999.90;999.90;;;;;;;;;;5010650;28;20211;-72
2022/11/21 11:35:44;;;;;;;1999.90;999.90;;;;;;;;;;5001946;28;20236;-71
2022/11/21 11:38:30;;;;;;;1999.90;999.90;;;;;;;;;;5008420;28;20443;-71
2022/11/21 11:41:22;;;;;;;1999.90;999.90;;;;;;;;;;5006797;28;20241;-71
2022/11/21 11:47:31;;;;;;;1999.90;999.90;;;;;;;;;;5008045;28;20213;-74
2022/11/21 11:50:18;;;;;;;1999.90;999.90;;;;;;;;;;5006858;28;20297;-71
2022/11/21 11:53:05;;;;;;;1999.90;999.90;;;;;;;;;;5014347;28;20330;-71
2022/11/21 11:55:53;;;;;;;1999.90;999.90;;;;;;;;;;4999937;28;20212;-71
2022/11/21 11:58:40;;;;;;;1999.90;999.90;;;;;;;;;;5001718;28;20330;-72
2022/11/21 12:01:31;;;;;;;1999.90;999.90;;;;;;;;;;4999952;28;20305;-71
2022/11/21 12:04:17;;;;;;;1999.90;999.90;;;;;;;;;;4996804;28;20228;-72
2022/11/21 12:07:05;;;;;;;1999.90;999.90;;;;;;;;;;4997104;28;20685;-73
2022/11/21 12:09:55;;;;;;;1999.90;999.90;;;;;;;;;;5013097;28;20214;-72
2022/11/21 12:12:41;;;;;;;1999.90;999.90;;;;;;;;;;5013027;28;20227;-71
2022/11/21 12:18:33;;;;;;;1999.90;999.90;;;;;;;;;;5012947;28;20210;-72
2022/11/21 12:21:18;;;;;;;1999.90;999.90;;;;;;;;;;5007491;28;20357;-72
2022/11/21 12:24:04;;;;;;;1999.90;999.90;;;;;;;;;;5002924;28;20269;-72
2022/11/21 12:26:54;;;;;;;1999.90;999.90;;;;;;;;;;5006646;28;20595;-74
2022/11/21 12:29:44;;;;;;;1999.90;999.90;;;;;;;;;;5006066;28;20952;-73
2022/11/21 12:32:38;;;;;;;1999.90;999.90;;;;;;;;;;5015229;28;20305;-73
2022/11/21 12:35:31;;;;;;;1999.90;999.90;;;;;;;;;;4994333;28;20218;-73
2022/11/21 12:38:23;;;;;;;1999.90;999.90;;;;;;;;;;5009867;28;20203;-70
2022/11/21 12:44:19;;;;;;;1999.90;999.90;;;;;;;;;;5011087;28;20285;-71
2022/11/21 12:47:09;;;;;;;1999.90;999.90;;;;;;;;;;5015607;28;20727;-72
2022/11/21 12:56:15;;;;;;;1999.90;999.90;;;;;;;;;;5007170;28;20213;-71
2022/11/21 12:59:00;;;;;;;1999.90;999.90;;;;;;;;;;5003279;28;20278;-71
2022/11/21 13:01:49;;;;;;;1999.90;999.90;;;;;;;;;;4998141;28;20606;-74
2022/11/21 13:04:35;;;;;;;1999.90;999.90;;;;;;;;;;5005770;28;20237;-70
2022/11/21 13:07:21;;;;;;;1999.90;999.90;;;;;;;;;;5003318;28;20204;-71
2022/11/21 13:10:12;;;;;;;1999.90;999.90;;;;;;;;;;4998342;28;20211;-72
2022/11/21 13:13:00;;;;;;;1999.90;999.90;;;;;;;;;;5003510;28;20285;-74
2022/11/21 13:15:51;;;;;;;1999.90;999.90;;;;;;;;;;5003556;28;20581;-71
2022/11/21 13:18:40;;;;;;;1999.90;999.90;;;;;;;;;;5010370;28;20214;-73
2022/11/21 13:21:40;;;;;;;1999.90;999.90;;;;;;;;;;5020440;28;20346;-74
2022/11/21 13:24:53;;;;;;;1999.90;999.90;;;;;;;;;;4999207;28;20224;-72
2022/11/21 13:27:40;;;;;;;1999.90;999.90;;;;;;;;;;4976550;28;20691;-71
2022/11/21 13:30:26;;;;;;;1999.90;999.90;;;;;;;;;;5012884;28;20603;-74
2022/11/21 13:33:11;;;;;;;1999.90;999.90;;;;;;;;;;5017340;28;20722;-75
2022/11/21 13:35:56;;;;;;;1999.90;999.90;;;;;;;;;;5021551;28;20302;-74
2022/11/21 13:38:56;;;;;;;1999.90;999.90;;;;;;;;;;5003921;28;20217;-75
2022/11/21 13:45:20;;;;;;;1999.90;999.90;;;;;;;;;;5011985;28;20205;-75
2022/11/21 13:48:21;;;;;;;1999.90;999.90;;;;;;;;;;5006169;28;20432;-74
2022/11/21 13:51:21;;;;;;;1999.90;999.90;;;;;;;;;;5007396;28;20279;-75
2022/11/21 13:54:17;;;;;;;1999.90;999.90;;;;;;;;;;5017754;28;20206;-75
2022/11/21 13:57:09;;;;;;;1999.90;999.90;;;;;;;;;;5007991;28;20210;-73
2022/11/21 14:00:02;;;;;;;1999.90;999.90;;;;;;;;;;5022967;28;20332;-75
2022/11/21 14:02:59;;;;;;;1999.90;999.90;;;;;;;;;;5021158;28;20824;-73
2022/11/21 14:05:53;;;;;;;1999.90;999.90;;;;;;;;;;5009634;28;20584;-76
2022/11/21 14:08:39;;;;;;;1999.90;999.90;;;;;;;;;;5015966;28;20213;-73
2022/11/21 14:11:32;;;;;;;1999.90;999.90;;;;;;;;;;5013311;28;20522;-72
2022/11/21 14:14:24;;;;;;;1999.90;999.90;;;;;;;;;;5011066;28;20247;-75
2022/11/21 14:17:20;;;;;;;1999.90;999.90;;;;;;;;;;5005378;28;20206;-73
2022/11/21 14:20:09;;;;;;;1999.90;999.90;;;;;;;;;;4998547;28;20330;-76
2022/11/21 14:22:56;;;;;;;1999.90;999.90;;;;;;;;;;5014438;28;20216;-73
2022/11/21 14:25:42;;;;;;;1999.90;999.90;;;;;;;;;;5017896;28;20569;-75
2022/11/21 14:28:29;;;;;;;1999.90;999.90;;;;;;;;;;5018137;28;20240;-74
2022/11/21 14:31:14;;;;;;;1999.90;999.90;;;;;;;;;;5003526;28;20742;-74
2022/11/21 14:33:59;;;;;;;1999.90;999.90;;;;;;;;;;4995386;28;20699;-72
2022/11/21 14:36:44;;;;;;;1999.90;999.90;;;;;;;;;;4995418;28;20247;-74
2022/11/21 14:39:31;;;;;;;1999.90;999.90;;;;;;;;;;4995305;28;20216;-74
2022/11/21 14:42:16;;;;;;;1999.90;999.90;;;;;;;;;;4995199;28;20280;-75
2022/11/21 14:45:05;;;;;;;1999.90;999.90;;;;;;;;;;4994610;28;20604;-74
2022/11/21 14:47:51;;;;;;;1999.90;999.90;;;;;;;;;;5005308;28;20212;-76
2022/11/21 14:50:36;;;;;;;1999.90;999.90;;;;;;;;;;4994828;28;20237;-73
2022/11/21 14:53:21;;;;;;;1999.90;999.90;;;;;;;;;;4995012;28;20284;-74
2022/11/21 14:56:10;;;;;;;1999.90;999.90;;;;;;;;;;4994782;28;20574;-74
2022/11/21 14:58:56;;;;;;;1999.90;999.90;;;;;;;;;;4994900;28;20262;-77
2022/11/21 15:01:41;;;;;;;1999.90;999.90;;;;;;;;;;4994458;28;20252;-75
2022/11/21 15:04:27;;;;;;;1999.90;999.90;;;;;;;;;;5007851;28;20224;-75
2022/11/21 15:07:17;;;;;;;1999.90;999.90;;;;;;;;;;5015058;28;20216;-74
2022/11/21 15:10:03;;;;;;;1999.90;999.90;;;;;;;;;;5012917;28;20479;-74
2022/11/21 15:12:54;;;;;;;1999.90;999.90;;;;;;;;;;5013926;28;20584;-75
2022/11/21 15:15:41;;;;;;;1999.90;999.90;;;;;;;;;;5013854;28;20207;-76
2022/11/21 15:18:27;;;;;;;1999.90;999.90;;;;;;;;;;5014175;28;20236;-75
2022/11/21 15:21:13;;;;;;;1999.90;999.90;;;;;;;;;;5010077;28;20232;-75
2022/11/21 15:23:58;;;;;;;1999.90;999.90;;;;;;;;;;5010930;28;20733;-76
2022/11/21 15:26:43;;;;;;;1999.90;999.90;;;;;;;;;;5014043;28;20203;-75
2022/11/21 15:29:29;;;;;;;1999.90;999.90;;;;;;;;;;5013860;28;20325;-74
2022/11/21 15:32:14;;;;;;;1999.90;999.90;;;;;;;;;;5013883;28;20232;-75
2022/11/21 15:35:00;;;;;;;1999.90;999.90;;;;;;;;;;5013572;28;20204;-75
2022/11/21 15:37:48;;;;;;;1999.90;999.90;;;;;;;;;;5012775;28;20437;-75
2022/11/21 15:40:32;;;;;;;1999.90;999.90;;;;;;;;;;5013135;28;20431;-74
2022/11/21 15:43:32;;;;;;;1999.90;999.90;;;;;;;;;;5013290;28;20320;-77
2022/11/21 15:46:19;;;;;;;1999.90;999.90;;;;;;;;;;5012978;28;20201;-74
2022/11/21 15:49:05;;;;;;;1999.90;999.90;;;;;;;;;;5013485;28;20352;-75
2022/11/21 15:51:50;;;;;;;1999.90;999.90;;;;;;;;;;5013468;28;20768;-74
2022/11/21 15:54:35;;;;;;;1999.90;999.90;;;;;;;;;;5013101;28;20201;-76
2022/11/21 15:57:20;;;;;;;1999.90;999.90;;;;;;;;;;5013425;28;20212;-75
2022/11/21 16:00:07;;;;;;;1999.90;999.90;;;;;;;;;;5013314;28;20246;-75
2022/11/21 16:02:53;;;;;;;1999.90;999.90;;;;;;;;;;5013233;28;20217;-74
2022/11/21 16:05:38;;;;;;;1999.90;999.90;;;;;;;;;;5012875;28;20239;-73
2022/11/21 16:08:23;;;;;;;1999.90;999.90;;;;;;;;;;5013384;28;20657;-76
2022/11/21 16:11:11;;;;;;;1999.90;999.90;;;;;;;;;;5013043;28;20674;-76
2022/11/21 16:13:57;;;;;;;1999.90;999.90;;;;;;;;;;5013491;28;20203;-74
2022/11/21 16:16:43;;;;;;;1999.90;999.90;;;;;;;;;;5013063;28;20235;-76
2022/11/21 16:19:30;;;;;;;1999.90;999.90;;;;;;;;;;5012746;28;20204;-76
2022/11/21 16:22:15;;;;;;;1999.90;999.90;;;;;;;;;;5012921;28;20848;-73
2022/11/21 16:25:00;;;;;;;1999.90;999.90;;;;;;;;;;5012310;28;20227;-74
2022/11/21 16:27:45;;;;;;;1999.90;999.90;;;;;;;;;;5010819;28;20301;-73
2022/11/21 16:30:30;;;;;;;1999.90;999.90;;;;;;;;;;5004736;28;20213;-76
2022/11/21 16:33:15;;;;;;;1999.90;999.90;;;;;;;;;;5006802;28;20716;-75
2022/11/21 16:36:01;;;;;;;1999.90;999.90;;;;;;;;;;5012377;28;20203;-73
2022/11/21 16:38:46;;;;;;;1999.90;999.90;;;;;;;;;;5012718;28;20920;-74
2022/11/21 16:41:31;;;;;;;1999.90;999.90;;;;;;;;;;5012292;28;20784;-74
2022/11/21 16:44:16;;;;;;;1999.90;999.90;;;;;;;;;;5012227;28;20300;-75
2022/11/21 16:47:01;;;;;;;1999.90;999.90;;;;;;;;;;5001065;28;20216;-74
2022/11/21 16:49:47;;;;;;;1999.90;999.90;;;;;;;;;;4992974;28;20332;-75
2022/11/21 16:52:35;;;;;;;1999.90;999.90;;;;;;;;;;4992235;28;20349;-74
2022/11/21 16:55:20;;;;;;;1999.90;999.90;;;;;;;;;;4991940;28;20449;-75
2022/11/21 16:58:05;;;;;;;1999.90;999.90;;;;;;;;;;4992876;28;20702;-74
2022/11/21 17:00:50;;;;;;;1999.90;999.90;;;;;;;;;;5013982;28;20377;-75
2022/11/21 17:03:35;;;;;;;1999.90;999.90;;;;;;;;;;5009349;28;20214;-76
2022/11/21 17:06:21;;;;;;;1999.90;999.90;;;;;;;;;;4992401;28;20691;-76
2022/11/21 17:09:08;;;;;;;1999.90;999.90;;;;;;;;;;5002921;28;20216;-75
2022/11/21 17:11:56;;;;;;;1999.90;999.90;;;;;;;;;;5012737;28;20279;-75
2022/11/21 17:14:41;;;;;;;1999.90;999.90;;;;;;;;;;5006840;28;20281;-76
2022/11/21 17:17:26;;;;;;;1999.90;999.90;;;;;;;;;;5012117;28;20211;-75
2022/11/21 17:20:11;;;;;;;1999.90;999.90;;;;;;;;;;5012048;28;20266;-76
2022/11/21 17:22:56;;;;;;;1999.90;999.90;;;;;;;;;;5012235;28;20211;-74
2022/11/21 17:25:42;;;;;;;1999.90;999.90;;;;;;;;;;5011493;28;20306;-74
2022/11/21 17:28:27;;;;;;;1999.90;999.90;;;;;;;;;;5011933;28;20207;-76
2022/11/21 17:31:12;;;;;;;1999.90;999.90;;;;;;;;;;4992336;28;20743;-75
2022/11/21 17:33:59;;;;;;;1999.90;999.90;;;;;;;;;;5011700;28;20245;-75
2022/11/21 17:36:44;;;;;;;1999.90;999.90;;;;;;;;;;5010551;28;20222;-74
2022/11/21 17:39:29;;;;;;;1999.90;999.90;;;;;;;;;;5005931;28;20577;-75
2022/11/21 17:42:15;;;;;;;1999.90;999.90;;;;;;;;;;4995368;28;20346;-74
2022/11/21 17:45:00;;;;;;;1999.90;999.90;;;;;;;;;;5011379;28;20602;-76
2022/11/21 17:47:45;;;;;;;1999.90;999.90;;;;;;;;;;5012075;28;20233;-74
2022/11/21 17:50:30;;;;;;;1999.90;999.90;;;;;;;;;;5011582;28;20207;-75
2022/11/21 17:53:15;;;;;;;1999.90;999.90;;;;;;;;;;5011436;28;20923;-76
2022/11/21 17:56:01;;;;;;;1999.90;999.90;;;;;;;;;;5011310;28;20266;-78
2022/11/21 17:58:47;;;;;;;1999.90;999.90;;;;;;;;;;5011660;28;20207;-76
2022/11/21 18:01:32;;;;;;;1999.90;999.90;;;;;;;;;;5011586;28;20236;-76
2022/11/21 18:04:17;;;;;;;1999.90;999.90;;;;;;;;;;5011734;28;20234;-76
2022/11/21 18:07:03;;;;;;;1999.90;999.90;;;;;;;;;;5015223;28;20200;-74
2022/11/21 18:09:47;;;;;;;1999.90;999.90;;;;;;;;;;5015498;28;20696;-75
2022/11/21 18:12:32;;;;;;;1999.90;999.90;;;;;;;;;;5015247;28;20597;-75
2022/11/21 18:15:18;;;;;;;1999.90;999.90;;;;;;;;;;5015073;28;20206;-76
2022/11/21 18:18:03;;;;;;;1999.90;999.90;;;;;;;;;;4998425;28;20207;-76
2022/11/21 18:20:48;;;;;;;1999.90;999.90;;;;;;;;;;4994631;28;20353;-76
2022/11/21 18:23:33;;;;;;;1999.90;999.90;;;;;;;;;;4995546;28;20692;-73
2022/11/21 18:26:19;;;;;;;1999.90;999.90;;;;;;;;;;4995338;28;20207;-76
2022/11/21 18:29:06;;;;;;;1999.90;999.90;;;;;;;;;;4995349;28;20204;-75
2022/11/21 18:31:52;;;;;;;1999.90;999.90;;;;;;;;;;5005796;28;20249;-75
2022/11/21 18:34:37;;;;;;;1999.90;999.90;;;;;;;;;;5014699;28;20207;-75
2022/11/21 18:37:22;;;;;;;1999.90;999.90;;;;;;;;;;5014834;28;20408;-75
2022/11/21 18:40:08;;;;;;;1999.90;999.90;;;;;;;;;;5014962;28;20211;-75
2022/11/21 18:42:53;;;;;;;1999.90;999.90;;;;;;;;;;5014516;28;20223;-76
2022/11/21 18:45:38;;;;;;;1999.90;999.90;;;;;;;;;;5014193;28;20227;-75
2022/11/21 18:48:24;;;;;;;1999.90;999.90;;;;;;;;;;5014769;28;20717;-74
2022/11/21 18:51:10;;;;;;;1999.90;999.90;;;;;;;;;;5013420;28;20437;-74
2022/11/21 18:53:56;;;;;;;1999.90;999.90;;;;;;;;;;4993517;28;20220;-74
2022/11/21 18:56:40;;;;;;;1999.90;999.90;;;;;;;;;;4994016;28;20692;-75
2022/11/21 18:59:25;;;;;;;1999.90;999.90;;;;;;;;;;4994938;28;20218;-74
2022/11/21 19:02:10;;;;;;;1999.90;999.90;;;;;;;;;;4994617;28;20604;-76
2022/11/21 19:04:56;;;;;;;1999.90;999.90;;;;;;;;;;4994312;28;20728;-74
2022/11/21 19:07:41;;;;;;;1999.90;999.90;;;;;;;;;;4994813;28;20208;-74
2022/11/21 19:10:26;;;;;;;1999.90;999.90;;;;;;;;;;4994432;28;20208;-75
2022/11/21 19:13:11;;;;;;;1999.90;999.90;;;;;;;;;;4994392;28;20328;-75
2022/11/21 19:15:56;;;;;;;1999.90;999.90;;;;;;;;;;4998426;28;20525;-77
2022/11/21 19:18:41;;;;;;;1999.90;999.90;;;;;;;;;;5007936;28;20710;-75
2022/11/21 19:21:27;;;;;;;1999.90;999.90;;;;;;;;;;5002650;28;20609;-77
2022/11/21 19:24:12;;;;;;;1999.90;999.90;;;;;;;;;;4995987;28;20744;-77
2022/11/21 19:26:58;;;;;;;1999.90;999.90;;;;;;;;;;5007780;28;20246;-76
2022/11/21 19:29:43;;;;;;;1999.90;999.90;;;;;;;;;;5006345;28;20686;-77
2022/11/21 19:32:29;;;;;;;1999.90;999.90;;;;;;;;;;5008824;28;20231;-77
2022/11/21 19:35:16;;;;;;;1999.90;999.90;;;;;;;;;;5012973;28;20568;-76
2022/11/21 19:38:03;;;;;;;1999.90;999.90;;;;;;;;;;5012389;28;20765;-76
2022/11/21 19:43:51;;;;;;;1999.90;999.90;;;;;;;;;;5002620;28;20239;-77
2022/11/21 19:46:37;;;;;;;1999.90;999.90;;;;;;;;;;5003121;28;20205;-78
2022/11/21 19:49:23;;;;;;;1999.90;999.90;;;;;;;;;;5008104;28;20211;-77
2022/11/21 19:52:08;;;;;;;1999.90;999.90;;;;;;;;;;5004763;28;20235;-76
2022/11/21 19:54:54;;;;;;;1999.90;999.90;;;;;;;;;;5005137;28;20580;-77
2022/11/21 19:57:39;;;;;;;1999.90;999.90;;;;;;;;;;5004862;28;20219;-76
2022/11/21 20:00:25;;;;;;;1999.90;999.90;;;;;;;;;;4994751;28;20571;-76
2022/11/21 20:03:09;;;;;;;1999.90;999.90;;;;;;;;;;4993365;28;20786;-77
2022/11/21 20:06:00;;;;;;;1999.90;999.90;;;;;;;;;;4995770;28;20258;-76
2022/11/21 20:08:48;;;;;;;1999.90;999.90;;;;;;;;;;4996471;28;20296;-77
2022/11/21 20:11:35;;;;;;;1999.90;999.90;;;;;;;;;;4999959;28;20281;-76
2022/11/21 20:14:20;;;;;;;1999.90;999.90;;;;;;;;;;5004792;28;20214;-76
2022/11/21 20:17:05;;;;;;;1999.90;999.90;;;;;;;;;;5013043;28;20697;-77
2022/11/21 20:19:50;;;;;;;1999.90;999.90;;;;;;;;;;4999984;28;20219;-76
2022/11/21 20:22:35;;;;;;;1999.90;999.90;;;;;;;;;;5012268;28;20232;-77
2022/11/21 20:25:20;;;;;;;1999.90;999.90;;;;;;;;;;4997156;28;20614;-76
2022/11/21 20:28:06;;;;;;;1999.90;999.90;;;;;;;;;;5011051;28;20215;-75
2022/11/21 20:30:51;;;;;;;1999.90;999.90;;;;;;;;;;5011373;28;20366;-77
2022/11/21 20:33:36;;;;;;;1999.90;999.90;;;;;;;;;;5009606;28;20585;-76
2022/11/21 20:36:22;;;;;;;1999.90;999.90;;;;;;;;;;5005803;28;21063;-77
2022/11/21 20:39:11;;;;;;;1999.90;999.90;;;;;;;;;;5009961;28;20278;-75
2022/11/21 20:41:57;;;;;;;1999.90;999.90;;;;;;;;;;5010534;28;20234;-76
2022/11/21 20:44:45;;;;;;;1999.90;999.90;;;;;;;;;;5011963;28;20357;-76
2022/11/21 20:47:30;;;;;;;1999.90;999.90;;;;;;;;;;5010065;28;20212;-76
2022/11/21 20:50:15;;;;;;;1999.90;999.90;;;;;;;;;;4995862;28;20687;-76
2022/11/21 20:53:00;;;;;;;1999.90;999.90;;;;;;;;;;5002300;28;20694;-77
2022/11/21 20:55:45;;;;;;;1999.90;999.90;;;;;;;;;;5000665;28;20214;-72
2022/11/21 20:58:30;;;;;;;1999.90;999.90;;;;;;;;;;5009342;28;20490;-76
2022/11/21 21:01:17;;;;;;;1999.90;999.90;;;;;;;;;;5011334;28;20613;-77
2022/11/21 21:04:03;;;;;;;1999.90;999.90;;;;;;;;;;5011744;28;20259;-76
2022/11/21 21:06:47;;;;;;;1999.90;999.90;;;;;;;;;;5011152;28;20229;-76
2022/11/21 21:09:33;;;;;;;1999.90;999.90;;;;;;;;;;5011567;28;20201;-75
2022/11/21 21:12:17;;;;;;;1999.90;999.90;;;;;;;;;;5011389;28;20226;-73
2022/11/21 21:15:03;;;;;;;1999.90;999.90;;;;;;;;;;4991868;28;20212;-75
2022/11/21 21:17:49;;;;;;;1999.90;999.90;;;;;;;;;;4991775;28;20591;-76